createdAt,value
2022-12-16T00:02:01.857Z,-0.79
2022-12-16T00:07:03.294Z,-0.78
2022-12-16T00:12:05.275Z,-0.82
2022-12-16T00:17:06.835Z,-0.77
2022-12-16T00:22:08.255Z,-0.78
2022-12-16T00:27:09.709Z,-0.88
2022-12-16T00:32:11.099Z,-0.88
2022-12-16T00:37:13.368Z,-0.91
2022-12-16T00:42:14.839Z,-1.03
2022-12-16T00:47:16.248Z,-1.06
2022-12-16T00:52:17.686Z,-1.01
2022-12-16T00:57:19.172Z,-0.94
2022-12-16T01:02:20.670Z,-0.90
2022-12-16T01:07:22.176Z,-0.87
2022-12-16T01:12:24.104Z,-0.94
2022-12-16T01:17:26.068Z,-1.02
2022-12-16T01:22:32.837Z,-1.01
2022-12-16T01:27:34.239Z,-0.96
2022-12-16T01:32:36.092Z,-0.95
2022-12-16T01:37:37.611Z,-0.98
2022-12-16T01:42:39.152Z,-1.03
2022-12-16T01:47:40.592Z,-1.04
2022-12-16T01:52:48.842Z,-1.17
2022-12-16T01:58:02.266Z,-1.25
2022-12-16T02:03:04.499Z,-1.28
2022-12-16T02:08:05.947Z,-1.29
2022-12-16T02:13:26.400Z,-1.19
2022-12-16T02:18:56.707Z,-1.21
2022-12-16T02:24:13.625Z,-1.26
2022-12-16T02:29:36.020Z,-1.14
2022-12-16T02:34:57.311Z,-1.02
2022-12-16T02:40:06.836Z,-0.88
2022-12-16T02:45:15.866Z,-0.78
2022-12-16T02:50:20.341Z,-0.74
2022-12-16T02:55:32.749Z,-0.75
2022-12-16T03:01:00.612Z,-0.69
2022-12-16T03:06:04.697Z,-0.74
2022-12-16T03:11:10.328Z,-0.74
2022-12-16T03:16:17.647Z,-0.75
2022-12-16T03:21:25.332Z,-0.77
2022-12-16T03:27:02.421Z,-0.79
2022-12-16T03:32:15.410Z,-0.84
2022-12-16T03:37:20.476Z,-0.89
2022-12-16T03:42:23.634Z,-0.88
2022-12-16T03:47:29.197Z,-0.85
2022-12-16T03:52:30.577Z,-0.79
2022-12-16T03:57:31.954Z,-0.76
2022-12-16T04:02:33.671Z,-0.71
2022-12-16T04:07:35.245Z,-0.74
2022-12-16T04:12:55.496Z,-0.76
2022-12-16T04:18:15.910Z,-0.85
2022-12-16T04:23:36.219Z,-0.89
2022-12-16T04:28:37.709Z,-0.83
2022-12-16T04:33:58.681Z,-0.83
2022-12-16T04:39:18.495Z,-0.86
2022-12-16T04:44:38.595Z,-1.02
2022-12-16T04:49:58.864Z,-1.13
2022-12-16T04:55:18.812Z,-1.19
2022-12-16T05:00:38.730Z,-1.23
2022-12-16T05:05:58.503Z,-1.29
2022-12-16T05:11:18.308Z,-1.35
2022-12-16T05:16:38.165Z,-1.40
2022-12-16T05:21:57.906Z,-1.39
2022-12-16T05:27:17.986Z,-1.42
2022-12-16T05:32:37.694Z,-1.49
2022-12-16T05:37:57.728Z,-1.54
2022-12-16T05:43:17.589Z,-1.63
2022-12-16T05:48:37.676Z,-1.66
2022-12-16T05:53:57.551Z,-1.63
2022-12-16T05:59:17.743Z,-1.66
2022-12-16T06:04:37.674Z,-1.78
2022-12-16T06:09:57.552Z,-1.89
2022-12-16T06:15:17.443Z,-2.09
2022-12-16T06:20:37.405Z,-2.31
2022-12-16T06:25:58.159Z,-2.55
2022-12-16T06:31:18.112Z,-2.73
2022-12-16T06:36:38.460Z,-2.86
2022-12-16T06:41:58.207Z,-2.99
2022-12-16T06:47:18.132Z,-3.10
2022-12-16T06:52:37.932Z,-3.21
2022-12-16T06:57:57.713Z,-3.28
2022-12-16T07:03:17.541Z,-3.37
2022-12-16T07:08:37.570Z,-3.35
2022-12-16T07:13:57.395Z,-3.37
2022-12-16T07:19:17.217Z,-3.45
2022-12-16T07:24:37.151Z,-3.47
2022-12-16T07:29:57.105Z,-3.53
2022-12-16T07:35:17.156Z,-3.58
2022-12-16T07:40:37.007Z,-3.61
2022-12-16T07:45:56.838Z,-3.61
2022-12-16T07:51:16.757Z,-3.54
2022-12-16T07:56:36.595Z,-3.45
2022-12-16T08:01:56.935Z,-3.33
2022-12-16T08:07:17.066Z,-2.90
2022-12-16T08:12:37.419Z,-2.62
2022-12-16T08:17:57.411Z,-0.86
2022-12-16T08:23:17.426Z,0.58
2022-12-16T08:28:37.225Z,1.14
2022-12-16T08:33:57.200Z,1.21
2022-12-16T08:39:17.116Z,1.23
2022-12-16T08:44:36.954Z,1.27
2022-12-16T08:49:59.903Z,1.34
2022-12-16T08:55:27.772Z,1.46
2022-12-16T09:00:49.445Z,1.75
2022-12-16T09:06:09.331Z,2.19
2022-12-16T09:11:29.331Z,2.71
2022-12-16T09:16:49.308Z,3.18
2022-12-16T09:22:09.256Z,3.58
2022-12-16T09:27:29.131Z,4.45
2022-12-16T09:32:49.155Z,3.88
2022-12-16T09:38:09.544Z,3.77
2022-12-16T09:43:41.732Z,3.89
2022-12-16T09:49:25.207Z,2.87
2022-12-16T09:54:48.126Z,2.20
2022-12-16T10:00:19.685Z,1.25
2022-12-16T10:05:52.049Z,2.12
2022-12-16T10:11:26.155Z,2.48
2022-12-16T10:17:04.505Z,2.24
2022-12-16T10:22:33.235Z,2.27
2022-12-16T10:28:00.771Z,2.41
2022-12-16T10:33:21.254Z,2.35
2022-12-16T10:38:55.649Z,2.09
2022-12-16T10:44:17.624Z,1.74
2022-12-16T10:49:38.696Z,1.32
2022-12-16T10:55:05.102Z,1.20
2022-12-16T11:00:55.986Z,1.03
2022-12-16T11:06:18.969Z,0.58
2022-12-16T11:11:49.976Z,0.10
2022-12-16T11:17:32.704Z,0.72
2022-12-16T11:22:52.337Z,1.03
2022-12-16T11:28:35.319Z,2.07
2022-12-16T11:33:55.672Z,3.20
2022-12-16T11:39:16.340Z,2.99
2022-12-16T11:44:38.507Z,4.02
2022-12-16T11:49:58.848Z,5.05
2022-12-16T11:55:48.155Z,5.43
2022-12-16T12:01:16.589Z,5.65
2022-12-16T12:07:02.634Z,5.40
2022-12-16T12:12:41.532Z,4.99
2022-12-16T12:18:39.272Z,5.15
2022-12-16T12:24:16.085Z,4.98
2022-12-16T12:29:45.588Z,3.98
2022-12-16T12:35:27.129Z,3.97
2022-12-16T12:40:46.991Z,3.68
2022-12-16T12:46:15.858Z,3.49
2022-12-16T12:52:17.973Z,3.45
2022-12-16T12:57:44.606Z,3.36
2022-12-16T13:03:14.341Z,2.99
2022-12-16T13:08:55.996Z,2.94
2022-12-16T13:14:16.299Z,3.08
2022-12-16T13:19:48.235Z,2.54
2022-12-16T13:25:09.751Z,2.44
2022-12-16T13:30:29.513Z,2.50
2022-12-16T13:35:49.821Z,2.41
2022-12-16T13:41:17.959Z,2.58
2022-12-16T13:46:37.684Z,2.49
2022-12-16T13:51:57.636Z,2.11
2022-12-16T13:57:19.445Z,1.83
2022-12-16T14:03:10.136Z,1.61
2022-12-16T14:08:35.577Z,1.50
2022-12-16T14:14:20.908Z,1.55
2022-12-16T14:19:59.798Z,1.68
2022-12-16T14:25:32.371Z,1.66
2022-12-16T14:30:52.705Z,1.67
2022-12-16T14:36:12.723Z,1.63
2022-12-16T14:41:36.628Z,1.58
2022-12-16T14:46:57.148Z,1.30
2022-12-16T14:52:16.935Z,1.13
2022-12-16T14:57:39.344Z,0.98
2022-12-16T15:03:04.870Z,0.81
2022-12-16T15:08:30.135Z,0.68
2022-12-16T15:13:55.738Z,0.71
2022-12-16T15:19:20.909Z,0.64
2022-12-16T15:24:43.673Z,0.59
2022-12-16T15:30:04.182Z,0.69
2022-12-16T15:35:24.299Z,0.82
2022-12-16T15:40:49.191Z,0.86
2022-12-16T15:46:10.056Z,0.91
2022-12-16T15:51:50.535Z,0.79
2022-12-16T15:57:10.496Z,0.60
2022-12-16T16:02:39.237Z,0.55
2022-12-16T16:08:03.804Z,0.59
2022-12-16T16:13:27.288Z,0.62
2022-12-16T16:18:47.241Z,0.58
2022-12-16T16:24:07.048Z,0.57
2022-12-16T16:29:29.594Z,0.57
2022-12-16T16:34:49.943Z,0.66
2022-12-16T16:40:09.930Z,0.77
2022-12-16T16:45:30.266Z,0.73
2022-12-16T16:50:50.126Z,0.72
2022-12-16T16:56:18.126Z,0.83
2022-12-16T17:01:39.844Z,0.85
2022-12-16T17:07:00.009Z,0.72
2022-12-16T17:12:19.826Z,0.59
2022-12-16T17:17:39.660Z,0.47
2022-12-16T17:22:59.869Z,0.32
2022-12-16T17:28:20.763Z,0.19
2022-12-16T17:33:40.632Z,0.16
2022-12-16T17:39:02.574Z,0.16
2022-12-16T17:44:23.009Z,0.30
2022-12-16T17:49:42.873Z,0.48
2022-12-16T17:55:02.710Z,0.54
2022-12-16T18:00:23.068Z,0.50
2022-12-16T18:05:44.847Z,0.63
2022-12-16T18:11:04.848Z,0.76
2022-12-16T18:16:24.931Z,0.79
2022-12-16T18:21:45.027Z,0.78
2022-12-16T18:27:04.890Z,0.81
2022-12-16T18:32:24.800Z,0.79
2022-12-16T18:37:44.763Z,0.69
2022-12-16T18:43:04.936Z,0.62
2022-12-16T18:48:24.785Z,0.58
2022-12-16T18:53:44.707Z,0.49
2022-12-16T18:59:04.514Z,0.38
2022-12-16T19:04:24.400Z,0.28
2022-12-16T19:09:44.759Z,0.18
2022-12-16T19:15:04.843Z,0.12
2022-12-16T19:20:29.925Z,0.02
2022-12-16T19:26:03.318Z,-0.12
2022-12-16T19:31:28.133Z,-0.19
2022-12-16T19:36:51.048Z,-0.26
2022-12-16T19:42:11.885Z,-0.43
2022-12-16T19:47:31.720Z,-0.54
2022-12-16T19:52:51.729Z,-0.57
2022-12-16T19:58:11.659Z,-0.58
2022-12-16T20:03:35.670Z,-0.66
2022-12-16T20:08:55.840Z,-0.80
2022-12-16T20:14:16.131Z,-0.98
2022-12-16T20:19:37.434Z,-1.04
2022-12-16T20:24:59.065Z,-1.04
2022-12-16T20:30:19.005Z,-1.11
2022-12-16T20:35:38.897Z,-1.29
2022-12-16T20:40:58.679Z,-1.53
2022-12-16T20:46:18.567Z,-1.76
2022-12-16T20:51:38.721Z,-1.95
2022-12-16T20:56:58.656Z,-2.07
2022-12-16T21:02:31.635Z,-2.21
2022-12-16T21:07:53.892Z,-2.37
2022-12-16T21:13:13.800Z,-2.54
2022-12-16T21:18:33.629Z,-2.66
2022-12-16T21:23:53.526Z,-2.73
2022-12-16T21:29:13.478Z,-2.82
2022-12-16T21:34:33.309Z,-2.87
2022-12-16T21:39:54.750Z,-2.92
2022-12-16T21:45:29.555Z,-2.99
2022-12-16T21:50:50.084Z,-3.12
2022-12-16T21:56:11.455Z,-3.28
2022-12-16T22:01:31.477Z,-3.38
2022-12-16T22:06:51.535Z,-3.42
2022-12-16T22:12:11.928Z,-3.47
2022-12-16T22:17:31.788Z,-3.55
2022-12-16T22:22:51.749Z,-3.59
2022-12-16T22:28:11.803Z,-3.60
2022-12-16T22:33:31.635Z,-3.66
2022-12-16T22:38:52.537Z,-3.73
2022-12-16T22:44:12.490Z,-3.77
2022-12-16T22:49:33.058Z,-3.83
2022-12-16T22:54:53.338Z,-3.90
2022-12-16T23:00:13.285Z,-3.97
2022-12-16T23:05:33.076Z,-4.01
2022-12-16T23:10:52.992Z,-4.02
2022-12-16T23:16:17.019Z,-4.03
2022-12-16T23:21:38.196Z,-4.13
2022-12-16T23:26:58.214Z,-4.21
2022-12-16T23:32:18.299Z,-4.17
2022-12-16T23:37:38.211Z,-4.20
2022-12-16T23:42:57.920Z,-4.30
2022-12-16T23:48:27.403Z,-4.44
2022-12-16T23:53:47.107Z,-4.56
2022-12-16T23:59:07.491Z,-4.59
